Terminal Aerodrome Forecast
Issued by NWS Rapid City, SD

Home | Current Version | Previous Version | Graphics & Text | Print | Product List | Glossary On
Versions: 1 2 3 4 5 6 7 8 9 10 11 12 13 14 15 16 17 18 19 20 21 22 23 24
000
FTUS43 KUNR 241500 AAB
TAFRAP
TAF AMD
KRAP 241500Z 2415/2512 34018G30KT P6SM SCT008 BKN015 BKN100
      TEMPO 2415/2417 OVC005
     FM242300 03013KT P6SM BKN050
     FM250600 06013KT P6SM -RA BKN020=

USA.gov is the U.S. government's official web portal to all federal, state and local government web resources and services.